This is the latest recevied weather packets stored in our database for station/object OE6ACM-14. If no packets are shown the sender has not sent any weather packets the latest 10 day(s).
| Time | Temp. | Humidity | Pressure | Rain* | Wind** | Luminosity | Snow |
|---|---|---|---|---|---|---|---|
| 1787759178 | 28.89° C | 40% | 929.2 hPa | - | - | - | - |
| 1787758878 | 28.33° C | 38% | 929.2 hPa | - | - | - | - |
| 1787758578 | 28.33° C | 39% | 929.3 hPa | - | - | - | - |
| 1787758278 | 28.89° C | 36% | 929.3 hPa | - | - | - | - |
| 1787757978 | 28.89° C | 37% | 929.3 hPa | - | - | - | - |
| 1787757678 | 29.44° C | 38% | 929.3 hPa | - | - | - | - |
| 1787757378 | 28.89° C | 40% | 929.3 hPa | - | - | - | - |
| 1787757078 | 27.78° C | 41% | 929.3 hPa | - | - | - | - |
| 1787756778 | 26.11° C | 48% | 929.4 hPa | - | - | - | - |
| 1787756478 | 26.11° C | 49% | 929.5 hPa | - | - | - | - |
| 1787756178 | 25.56° C | 50% | 929.4 hPa | - | - | - | - |
| 1787755878 | 24.44° C | 51% | 929.5 hPa | - | - | - | - |
| 1787755578 | 24.44° C | 50% | 929.4 hPa | - | - | - | - |
| 1787755278 | 25° C | 49% | 929.4 hPa | - | - | - | - |
| 1787754978 | 25° C | 50% | 929.4 hPa | - | - | - | - |
| 1787754678 | 25° C | 49% | 929.4 hPa | - | - | - | - |
| 1787754378 | 25° C | 47% | 929.3 hPa | - | - | - | - |
| 1787754078 | 26.11° C | 44% | 929.3 hPa | - | - | - | - |
| 1787753778 | 26.67° C | 42% | 929.3 hPa | - | - | - | - |
| 1787753478 | 26.67° C | 46% | 929.3 hPa | - | - | - | - |
| 1787753178 | 26.67° C | 44% | 929.3 hPa | - | - | - | - |
| 1787752878 | 26.11° C | 42% | 929.3 hPa | - | - | - | - |
| 1787752578 | 25.56° C | 49% | 929.4 hPa | - | - | - | - |
| 1787752278 | 25.56° C | 47% | 929.4 hPa | - | - | - | - |
| 1787751978 | 25° C | 46% | 929.4 hPa | - | - | - | - |
* Rain since midnight (hover to see other rain measurements)
** Current wind speed in m/s (hover to see current wind gust speed)